Aviation Digital Data Service (ADDS)

Output produced by METARs form (0835 UTC 19 April 2019)
found at http://www.aviationweather.gov/metar/data/
 
METAR text: MMTG 190443Z 30005KT 7SM SKC 25/16 A2993 RMK FU HZ ALQDS
Conditions at: MMTG (TUXTLA GUTIERREZ, MX) observed 0443 UTC 19 April 2019
Temperature: 25.0°C (77°F)
Dewpoint: 16.0°C (61°F) [RH = 57%]
Pressure (altimeter): 29.93 inches Hg (1013.6 mb)
Winds: from the WNW (300 degrees) at 6 MPH (5 knots; 2.6 m/s)
Visibility: 7 miles (11 km)
Ceiling: at least 12,000 feet AGL
Clouds: clear skies
Weather: no significant weather observed at this time

METAR text: MMTG 190343Z 00000KT 7SM SKC 26/16 A2991 RMK FU HZ ALQDS
Conditions at: MMTG (TUXTLA GUTIERREZ, MX) observed 0343 UTC 19 April 2019
Temperature: 26.0°C (79°F)
Dewpoint: 16.0°C (61°F) [RH = 54%]
Pressure (altimeter): 29.91 inches Hg (1013.0 mb)
Winds: calm
Visibility: 7 miles (11 km)
Ceiling: at least 12,000 feet AGL
Clouds: clear skies
Weather: no significant weather observed at this time

METAR text: MMTG 190243Z 31004KT 7SM SKC 28/17 A2989 RMK SLP082 52043 905 FU HZ ALQDS
Conditions at: MMTG (TUXTLA GUTIERREZ, MX) observed 0243 UTC 19 April 2019
Temperature: 28.0°C (82°F)
Dewpoint: 17.0°C (63°F) [RH = 51%]
Pressure (altimeter): 29.89 inches Hg (1012.3 mb)
[Sea-level pressure: 1008.2 mb]
Winds: from the NW (310 degrees) at 5 MPH (4 knots; 2.1 m/s)
Visibility: 7 miles (11 km)
Ceiling: at least 12,000 feet AGL
Clouds: clear skies
Weather: no significant weather observed at this time

METAR text: MMTG 190147Z 31005KT 7SM SKC 29/17 A2986 RMK FU HZ ALQDS
Conditions at: MMTG (TUXTLA GUTIERREZ, MX) observed 0147 UTC 19 April 2019
Temperature: 29.0°C (84°F)
Dewpoint: 17.0°C (63°F) [RH = 48%]
Pressure (altimeter): 29.86 inches Hg (1011.3 mb)
Winds: from the NW (310 degrees) at 6 MPH (5 knots; 2.6 m/s)
Visibility: 7 miles (11 km)
Ceiling: at least 12,000 feet AGL
Clouds: clear skies
Weather: no significant weather observed at this time

METAR text: MMTG 190042Z 23015KT 7SM SKC 31/16 A2980 RMK FU HZ ALQDS
Conditions at: MMTG (TUXTLA GUTIERREZ, MX) observed 0042 UTC 19 April 2019
Temperature: 31.0°C (88°F)
Dewpoint: 16.0°C (61°F) [RH = 40%]
Pressure (altimeter): 29.80 inches Hg (1009.2 mb)
Winds: from the SW (230 degrees) at 17 MPH (15 knots; 7.7 m/s)
Visibility: 7 miles (11 km)
Ceiling: at least 12,000 feet AGL
Clouds: clear skies
Weather: no significant weather observed at this time

METAR text: MMTG 182346Z 21011KT 7SM SKC 33/16 A2975 RMK SLP040 56004 951 FU HZ ALQDS TCU E
Conditions at: MMTG (TUXTLA GUTIERREZ, MX) observed 2346 UTC 18 April 2019
Temperature: 33.0°C (91°F)
Dewpoint: 16.0°C (61°F) [RH = 36%]
Pressure (altimeter): 29.75 inches Hg (1007.5 mb)
[Sea-level pressure: 1004.0 mb]
Winds: from the SSW (210 degrees) at 13 MPH (11 knots; 5.7 m/s)
Visibility: 7 miles (11 km)
Ceiling: at least 12,000 feet AGL
Clouds: clear skies
Weather: no significant weather observed at this time

METAR text: MMTG 182242Z 21012KT 6SM SKC 35/16 A2975 RMK FU HZ ARND
Conditions at: MMTG (TUXTLA GUTIERREZ, MX) observed 2242 UTC 18 April 2019
Temperature: 35.0°C (95°F)
Dewpoint: 16.0°C (61°F) [RH = 32%]
Pressure (altimeter): 29.75 inches Hg (1007.5 mb)
Winds: from the SSW (210 degrees) at 14 MPH (12 knots; 6.2 m/s)
Visibility: 6 miles (10 km)
Ceiling: at least 12,000 feet AGL
Clouds: clear skies
Weather: no significant weather observed at this time

METAR text: MMTG 182150Z 20008KT 6SM SKC 35/16 A2975 RMK FU HZ ALQDS ISOLD CU
Conditions at: MMTG (TUXTLA GUTIERREZ, MX) observed 2150 UTC 18 April 2019
Temperature: 35.0°C (95°F)
Dewpoint: 16.0°C (61°F) [RH = 32%]
Pressure (altimeter): 29.75 inches Hg (1007.5 mb)
Winds: from the SSW (200 degrees) at 9 MPH (8 knots; 4.1 m/s)
Visibility: 6 miles (10 km)
Ceiling: at least 12,000 feet AGL
Clouds: clear skies
Weather: no significant weather observed at this time

METAR text: MMTG 182047Z 16009KT 6SM SCT040 35/16 A2976 RMK SLP038 57026 900 8/100 FU HZ
Conditions at: MMTG (TUXTLA GUTIERREZ, MX) observed 2047 UTC 18 April 2019
Temperature: 35.0°C (95°F)
Dewpoint: 16.0°C (61°F) [RH = 32%]
Pressure (altimeter): 29.76 inches Hg (1007.9 mb)
[Sea-level pressure: 1003.8 mb]
Winds: from the SSE (160 degrees) at 10 MPH (9 knots; 4.6 m/s)
Visibility: 6 miles (10 km)
Ceiling: at least 12,000 feet AGL
Clouds: scattered clouds at 4000 feet AGL
Weather: no significant weather observed at this time

METAR text: MMTG 181950Z 18006G16KT 6SM SCT040 35/15 A2979 RMK 8/500 FU HZ
Conditions at: MMTG (TUXTLA GUTIERREZ, MX) observed 1950 UTC 18 April 2019
Temperature: 35.0°C (95°F)
Dewpoint: 15.0°C (59°F) [RH = 30%]
Pressure (altimeter): 29.79 inches Hg (1008.9 mb)
Winds: from the S (180 degrees) at 7 MPH (6 knots; 3.1 m/s)
gusting to 18 MPH (16 knots; 8.2 m/s)
Visibility: 6 miles (10 km)
Ceiling: at least 12,000 feet AGL
Clouds: scattered clouds at 4000 feet AGL
Weather: no significant weather observed at this time

METAR text: MMTG 181845Z 23004KT 5SM SCT040 34/16 A2982 RMK 8/500 FU HZ
Conditions at: MMTG (TUXTLA GUTIERREZ, MX) observed 1845 UTC 18 April 2019
Temperature: 34.0°C (93°F)
Dewpoint: 16.0°C (61°F) [RH = 34%]
Pressure (altimeter): 29.82 inches Hg (1009.9 mb)
Winds: from the SW (230 degrees) at 5 MPH (4 knots; 2.1 m/s)
Visibility: 5 miles ( 8 km)
Ceiling: at least 12,000 feet AGL
Clouds: scattered clouds at 4000 feet AGL
Weather: no significant weather observed at this time

METAR text: MMTG 181750Z 20009KT 6SM SCT040 34/16 A2985 RMK SLP066 57020 964 8/500 FU HZ
Conditions at: MMTG (TUXTLA GUTIERREZ, MX) observed 1750 UTC 18 April 2019
Temperature: 34.0°C (93°F)
Dewpoint: 16.0°C (61°F) [RH = 34%]
Pressure (altimeter): 29.85 inches Hg (1010.9 mb)
[Sea-level pressure: 1006.6 mb]
Winds: from the SSW (200 degrees) at 10 MPH (9 knots; 4.6 m/s)
Visibility: 6 miles (10 km)
Ceiling: at least 12,000 feet AGL
Clouds: scattered clouds at 4000 feet AGL
Weather: no significant weather observed at this time

METAR text: MMTG 181641Z 17006G16KT 5SM SKC 32/16 A2988 RMK FU HZ ISOLD CU
Conditions at: MMTG (TUXTLA GUTIERREZ, MX) observed 1641 UTC 18 April 2019
Temperature: 32.0°C (90°F)
Dewpoint: 16.0°C (61°F) [RH = 38%]
Pressure (altimeter): 29.88 inches Hg (1011.9 mb)
Winds: from the S (170 degrees) at 7 MPH (6 knots; 3.1 m/s)
gusting to 18 MPH (16 knots; 8.2 m/s)
Visibility: 5 miles ( 8 km)
Ceiling: at least 12,000 feet AGL
Clouds: clear skies
Weather: no significant weather observed at this time

METAR text: MMTG 181544Z 21008KT 5SM SKC 31/17 A2990 RMK FU HZ ISOLD CU
Conditions at: MMTG (TUXTLA GUTIERREZ, MX) observed 1544 UTC 18 April 2019
Temperature: 31.0°C (88°F)
Dewpoint: 17.0°C (63°F) [RH = 43%]
Pressure (altimeter): 29.90 inches Hg (1012.6 mb)
Winds: from the SSW (210 degrees) at 9 MPH (8 knots; 4.1 m/s)
Visibility: 5 miles ( 8 km)
Ceiling: at least 12,000 feet AGL
Clouds: clear skies
Weather: no significant weather observed at this time

METAR text: MMTG 181442Z 00000KT 5SM SKC 28/14 A2991 RMK SLP088 52017 969 FU HZ
Conditions at: MMTG (TUXTLA GUTIERREZ, MX) observed 1442 UTC 18 April 2019
Temperature: 28.0°C (82°F)
Dewpoint: 14.0°C (57°F) [RH = 42%]
Pressure (altimeter): 29.91 inches Hg (1013.0 mb)
[Sea-level pressure: 1008.8 mb]
Winds: calm
Visibility: 5 miles ( 8 km)
Ceiling: at least 12,000 feet AGL
Clouds: clear skies
Weather: no significant weather observed at this time

METAR text: MMTG 181346Z 13002KT 5SM SKC 25/16 A2990 RMK FU HZ
Conditions at: MMTG (TUXTLA GUTIERREZ, MX) observed 1346 UTC 18 April 2019
Temperature: 25.0°C (77°F)
Dewpoint: 16.0°C (61°F) [RH = 57%]
Pressure (altimeter): 29.90 inches Hg (1012.6 mb)
Winds: from the SE (130 degrees) at 2 MPH (2 knots; 1.0 m/s)
Visibility: 5 miles ( 8 km)
Ceiling: at least 12,000 feet AGL
Clouds: clear skies
Weather: no significant weather observed at this time

METAR text: MMTG 181243Z 28003KT 4SM SCT080 21/16 A2988 RMK 8/070 FU HZ
Conditions at: MMTG (TUXTLA GUTIERREZ, MX) observed 1243 UTC 18 April 2019
Temperature: 21.0°C (70°F)
Dewpoint: 16.0°C (61°F) [RH = 73%]
Pressure (altimeter): 29.88 inches Hg (1011.9 mb)
Winds: from the W (280 degrees) at 3 MPH (3 knots; 1.5 m/s)
Visibility: 4 miles ( 6 km)
Ceiling: at least 12,000 feet AGL
Clouds: scattered clouds at 8000 feet AGL
Weather: no significant weather observed at this time

METAR text: MMTG 181141Z 00000KT 4SM SCT070 19/15 A2986 RMK SLP081 5//// 974 8/070 FU HZ
Conditions at: MMTG (TUXTLA GUTIERREZ, MX) observed 1141 UTC 18 April 2019
Temperature: 19.0°C (66°F)
Dewpoint: 15.0°C (59°F) [RH = 78%]
Pressure (altimeter): 29.86 inches Hg (1011.3 mb)
[Sea-level pressure: 1008.1 mb]
Winds: calm
Visibility: 4 miles ( 6 km)
Ceiling: at least 12,000 feet AGL
Clouds: scattered clouds at 7000 feet AGL
Weather: no significant weather observed at this time

METAR text: MMTG 181048Z 29002KT 4SM SKC 20/15 A2985 RMK FU HZ RTS
Conditions at: MMTG (TUXTLA GUTIERREZ, MX) observed 1048 UTC 18 April 2019
Temperature: 20.0°C (68°F)
Dewpoint: 15.0°C (59°F) [RH = 73%]
Pressure (altimeter): 29.85 inches Hg (1010.9 mb)
Winds: from the WNW (290 degrees) at 2 MPH (2 knots; 1.0 m/s)
Visibility: 4 miles ( 6 km)
Ceiling: at least 12,000 feet AGL
Clouds: clear skies
Weather: no significant weather observed at this time

METAR text: MMTG 180449Z 24003KT 5SM SKC 26/16 A2990 RMK FU HZ ALQDS
Conditions at: MMTG (TUXTLA GUTIERREZ, MX) observed 0449 UTC 18 April 2019
Temperature: 26.0°C (79°F)
Dewpoint: 16.0°C (61°F) [RH = 54%]
Pressure (altimeter): 29.90 inches Hg (1012.6 mb)
Winds: from the WSW (240 degrees) at 3 MPH (3 knots; 1.5 m/s)
Visibility: 5 miles ( 8 km)
Ceiling: at least 12,000 feet AGL
Clouds: clear skies
Weather: no significant weather observed at this time

METAR text: MMTG 180342Z 00000KT 5SM SKC 28/16 A2989 RMK FU HZ ALQDS
Conditions at: MMTG (TUXTLA GUTIERREZ, MX) observed 0342 UTC 18 April 2019
Temperature: 28.0°C (82°F)
Dewpoint: 16.0°C (61°F) [RH = 48%]
Pressure (altimeter): 29.89 inches Hg (1012.3 mb)
Winds: calm
Visibility: 5 miles ( 8 km)
Ceiling: at least 12,000 feet AGL
Clouds: clear skies
Weather: no significant weather observed at this time

METAR text: MMTG 180249Z 27004KT 5SM SKC 29/16 A2987 RMK SLP075 52037 969 FU HZ ARND
Conditions at: MMTG (TUXTLA GUTIERREZ, MX) observed 0249 UTC 18 April 2019
Temperature: 29.0°C (84°F)
Dewpoint: 16.0°C (61°F) [RH = 45%]
Pressure (altimeter): 29.87 inches Hg (1011.6 mb)
[Sea-level pressure: 1007.5 mb]
Winds: from the W (270 degrees) at 5 MPH (4 knots; 2.1 m/s)
Visibility: 5 miles ( 8 km)
Ceiling: at least 12,000 feet AGL
Clouds: clear skies
Weather: no significant weather observed at this time

METAR text: MMTG 180153Z 36004KT 5SM SCT300 31/15 A2983 RMK 8/008 FU HZ ALQDS ISOLD AC
Conditions at: MMTG (TUXTLA GUTIERREZ, MX) observed 0153 UTC 18 April 2019
Temperature: 31.0°C (88°F)
Dewpoint: 15.0°C (59°F) [RH = 38%]
Pressure (altimeter): 29.83 inches Hg (1010.2 mb)
Winds: from the N (360 degrees) at 5 MPH (4 knots; 2.1 m/s)
Visibility: 5 miles ( 8 km)
Ceiling: at least 12,000 feet AGL
Clouds: scattered clouds at 30000 feet AGL
Weather: no significant weather observed at this time

METAR text: MMTG 180040Z 32008KT 5SM SCT030TCU SCT300 33/15 A2978 RMK 8/202 FU HZ ALQDS ISOLD AC
Conditions at: MMTG (TUXTLA GUTIERREZ, MX) observed 0040 UTC 18 April 2019
Temperature: 33.0°C (91°F)
Dewpoint: 15.0°C (59°F) [RH = 34%]
Pressure (altimeter): 29.78 inches Hg (1008.5 mb)
Winds: from the NW (320 degrees) at 9 MPH (8 knots; 4.1 m/s)
Visibility: 5 miles ( 8 km)
Ceiling: at least 12,000 feet AGL
Clouds: scattered clouds at 3000 feet AGL
scattered clouds at 30000 feet AGL
Weather: no significant weather observed at this time

METAR text: MMTG 172340Z 32007KT 5SM BKN030TCU BKN300 34/15 A2976 RMK SLP038 56003 978 8/202 FU HZ ALQDS ISOLD AC
Conditions at: MMTG (TUXTLA GUTIERREZ, MX) observed 2340 UTC 17 April 2019
Temperature: 34.0°C (93°F)
Dewpoint: 15.0°C (59°F) [RH = 32%]
Pressure (altimeter): 29.76 inches Hg (1007.9 mb)
[Sea-level pressure: 1003.8 mb]
Winds: from the NW (320 degrees) at 8 MPH (7 knots; 3.6 m/s)
Visibility: 5 miles ( 8 km)
Ceiling: 3000 feet AGL
Clouds: broken clouds at 3000 feet AGL
broken clouds at 30000 feet AGL
Weather: no significant weather observed at this time

METAR text: MMTG 172246Z 26008KT 5SM BKN030TCU 35/16 A2975 RMK 8/200 FU HZ ALQDS
Conditions at: MMTG (TUXTLA GUTIERREZ, MX) observed 2246 UTC 17 April 2019
Temperature: 35.0°C (95°F)
Dewpoint: 16.0°C (61°F) [RH = 32%]
Pressure (altimeter): 29.75 inches Hg (1007.5 mb)
Winds: from the W (260 degrees) at 9 MPH (8 knots; 4.1 m/s)
Visibility: 5 miles ( 8 km)
Ceiling: 3000 feet AGL
Clouds: broken clouds at 3000 feet AGL
Weather: no significant weather observed at this time

METAR text: MMTG 172144Z 29011KT 5SM BKN030TCU 37/16 A2974 RMK 8/200 FU HZ ALQDS
Conditions at: MMTG (TUXTLA GUTIERREZ, MX) observed 2144 UTC 17 April 2019
Temperature: 37.0°C (99°F)
Dewpoint: 16.0°C (61°F) [RH = 29%]
Pressure (altimeter): 29.74 inches Hg (1007.2 mb)
Winds: from the WNW (290 degrees) at 13 MPH (11 knots; 5.7 m/s)
Visibility: 5 miles ( 8 km)
Ceiling: 3000 feet AGL
Clouds: broken clouds at 3000 feet AGL
Weather: no significant weather observed at this time

METAR text: MMTG 172044Z 08003KT 5SM SCT030TCU 36/15 A2977 RMK SLP039 56040 976 8/200 FU HZ
Conditions at: MMTG (TUXTLA GUTIERREZ, MX) observed 2044 UTC 17 April 2019
Temperature: 36.0°C (97°F)
Dewpoint: 15.0°C (59°F) [RH = 29%]
Pressure (altimeter): 29.77 inches Hg (1008.2 mb)
[Sea-level pressure: 1003.9 mb]
Winds: from the E (80 degrees) at 3 MPH (3 knots; 1.5 m/s)
Visibility: 5 miles ( 8 km)
Ceiling: at least 12,000 feet AGL
Clouds: scattered clouds at 3000 feet AGL
Weather: no significant weather observed at this time

Forecast for: COR
Text: TAF COR MMTG 190525Z 1906/2006 30005KT 6SM HZ BKN030
Forecast period: 0600 to 1600 UTC 19 April 2019
Forecast type: FROM: standard forecast or significant change
Winds: from the WNW (300 degrees) at 6 MPH (5 knots; 2.6 m/s)
Visibility: 6 miles (10 km)
Ceiling: 3000 feet AGL
Clouds: broken clouds at 3000 feet AGL
Weather: HZ  (haze)
Text: TEMPO 1912/1915 3SM BR -RA BKN010 OVC020
Forecast period: 1200 to 1500 UTC 19 April 2019
Forecast type: TEMPORARY: The following changes expected for less than half the time period
Visibility: 3 miles (5 km)
Ceiling: 1000 feet AGL
Clouds: broken clouds at 1000 feet AGL
overcast cloud deck at 2000 feet AGL
Weather: BR -RA  (mist, light rain)
Text: FM191600 34015KT P6SM VC -RA BKN030 BKN090
Forecast period: 1600 UTC 19 April 2019 to 0200 UTC 20 April 2019
Forecast type: FROM: standard forecast or significant change
Winds: from the NNW (340 degrees) at 17 MPH (15 knots; 7.7 m/s)
Visibility: 6 or more miles 10+ km)
Ceiling: 3000 feet AGL
Clouds: broken clouds at 3000 feet AGL
broken clouds at 9000 feet AGL
Weather: VC -RA  (vicinity, light rain)
Text: TEMPO 1919/1923 4SM RA
Forecast period: 1900 to 2300 UTC 19 April 2019
Forecast type: TEMPORARY: The following changes expected for less than half the time period
Visibility: 4 miles (6 km)
Ceiling: unknown
Clouds: missing
Weather: RA  (moderate rain)
Text: FM200200 34010KT 6SM HZ SCT020 BKN070
Forecast period: 0200 to 0600 UTC 20 April 2019
Forecast type: FROM: standard forecast or significant change
Winds: from the NNW (340 degrees) at 12 MPH (10 knots; 5.1 m/s)
Visibility: 6 miles (10 km)
Ceiling: 7000 feet AGL
Clouds: scattered clouds at 2000 feet AGL
broken clouds at 7000 feet AGL
Weather: HZ  (haze)